Terminal Aerodrome Forecast
Issued by NWS

Home | Current Version | Previous Version | Text Only | Print | Product List | Glossary Off
Versions: 1 2 3 4 5 6 7 8 9 10 11 12 13 14 15 16 17

000
FTUS43 KBIS 281536 AAA
TAFMOT
TAF AMD
KMOT 281536Z 2816/2912 23008KT 5SM FU SKC
     FM281900 28013KT P6SM FEW250
     FM290300 VRB05KT P6SM FEW250=

USA.gov is the U.S. government's official web portal to all federal, state and local government web resources and services.